| ตารางข้อมูล | TH20402 | TH4529A | TH4529D | TH814 | ค้นข้อมูล1 | ค้นข้อมูล2 | ค่าสูงสุด-ต่ำสุด |  

Select Sensor -->| 20402 | 4529A | 4529D | 814 | 824 | 834 | 844 | หน้าจอย่อ | 4529 |
ข้อมูลรวม (ยังไม่ได้เลือกรายการ)

IDRoomDate  Temp  Humidity
 146996  814  2022-08-18 09:28:32  30.1  85.9 
 146995  4529A  2022-08-18 09:17:17  28.1  68.6 
 146994  4529D  2022-08-18 09:17:12  30.5  66.1 
 146993  20402  2022-08-18 09:10:59  31.4  61.1 
 146992  814  2022-08-18 09:08:30  30.1  85.8 
 146991  4529A  2022-08-18 08:57:15  28.1  69.5 
 146990  4529D  2022-08-18 08:57:09  30.5  65.3 
 146989  20402  2022-08-18 08:50:59  31.3  61.7 
 146988  814  2022-08-18 08:48:28  30.1  86.1 
 146987  4529A  2022-08-18 08:37:12  27.8  69.2 
 146986  4529D  2022-08-18 08:37:07  30.4  64.7 
 146985  20402  2022-08-18 08:30:58  30.8  62.9 
 146984  814  2022-08-18 08:28:25  30.1  86.3 
 146983  4529A  2022-08-18 08:17:10  27.1  71.2 
 146982  4529D  2022-08-18 08:17:05  30.2  65.0 
 146981  20402  2022-08-18 08:10:58  31.3  61.4 
 146980  814  2022-08-18 08:08:23  30.1  86.8 
 146979  4529A  2022-08-18 07:57:08  26.2  63.2 
 146978  4529D  2022-08-18 07:57:02  30.6  66.5 
 146977  20402  2022-08-18 07:50:58  31.2  62.1 
 146976  814  2022-08-18 07:48:20  30.1  86.3 
 146975  4529A  2022-08-18 07:37:05  26.2  55.8 
 146974  4529D  2022-08-18 07:37:00  30.6  66.1 
 146973  20402  2022-08-18 07:30:57  30.7  62.9 
 146972  814  2022-08-18 07:28:18  30.1  86.2 
 146971  4529A  2022-08-18 07:17:03  26.2  63.9 
 146970  4529D  2022-08-18 07:16:58  30.3  66.1 
 146969  20402  2022-08-18 07:10:57  31.3  61.4 
 146968  814  2022-08-18 07:08:15  30.1  86.1 
 146967  4529A  2022-08-18 06:57:01  27.3  67.4 
 146966  4529D  2022-08-18 06:56:55  30.4  65.7 
 146965  20402  2022-08-18 06:50:57  31.2  62.0 
 146964  814  2022-08-18 06:48:13  30.1  86.1 
 146963  4529A  2022-08-18 06:36:58  26.4  58.5 
 146962  4529D  2022-08-18 06:36:53  30.3  65.7 
 146961  20402  2022-08-18 06:30:56  30.8  62.8 
 146960  814  2022-08-18 06:28:11  30.1  86.1 
 146959  4529A  2022-08-18 06:16:56  26.7  62.6 
 146958  4529D  2022-08-18 06:16:51  30.1  66.3 
 146957  20402  2022-08-18 06:10:56  31.3  61.4 
 146956  814  2022-08-18 06:08:08  30.1  86.2 
 146955  4529A  2022-08-18 05:56:53  27.1  65.1 
 146954  4529D  2022-08-18 05:56:48  30.3  65.9 
 146953  20402  2022-08-18 05:50:55  31.2  61.9 
 146952  814  2022-08-18 05:48:06  30.1  86.1 
 146951  4529A  2022-08-18 05:36:51  26.9  59.2 
 146950  4529D  2022-08-18 05:36:46  30.7  65.6 
 146949  20402  2022-08-18 05:30:55  30.8  62.6 
 146948  814  2022-08-18 05:28:03  30.2  86.1 
 146947  4529A  2022-08-18 05:16:49  26.4  59.2 
 146946  4529D  2022-08-18 05:16:44  30.4  65.9 
 146945  20402  2022-08-18 05:10:54  0.0  0.0 
 146944  814  2022-08-18 05:08:01  30.1  86.0 
 146943  4529A  2022-08-18 04:56:46  26.9  61.5 
 146942  4529D  2022-08-18 04:56:41  30.5  65.6 
 146941  20402  2022-08-18 04:50:54  0.0  0.0 
 146940  814  2022-08-18 04:47:59  30.2  86.0 
 146939  4529A  2022-08-18 04:36:44  27.1  62.6 
 146938  4529D  2022-08-18 04:36:39  30.7  64.9 
 146937  20402  2022-08-18 04:30:54  30.9  62.5 
 146936  814  2022-08-18 04:27:56  30.2  86.1 
 146935  4529A  2022-08-18 04:16:42  27.3  62.4 
 146934  4529D  2022-08-18 04:16:36  30.7  65.4 
 146933  20402  2022-08-18 04:10:53  31.4  61.0 
 146932  814  2022-08-18 04:07:54  30.2  85.9 
 146931  4529A  2022-08-18 03:56:39  26.5  56.3 
 146930  4529D  2022-08-18 03:56:34  30.8  64.9 
 146929  20402  2022-08-18 03:50:53  31.2  61.8 
 146928  814  2022-08-18 03:47:51  30.1  85.9 
 146927  4529A  2022-08-18 03:36:37  26.0  55.6 
 146926  4529D  2022-08-18 03:36:32  31.1  64.3 
 146925  20402  2022-08-18 03:30:53  30.9  62.5 

Data every 20 minute.